Data for 01/28/2008

Time Sea-Level Adjusted Pressure Absolute Pressure Temperature Relative Humidity Dew Point   
(mb) (inHg) (mb) (inHg) (C) (F) (%) (C) (F)
00:05 991 29.26 820 24.21 4.6 40.2 55 -3.8 25.2
00:10 991 29.26 820 24.21 4.4 39.9 55 -3.9 25
00:15 991 29.26 820 24.21 4.5 40.1 55 -3.7 25.3
00:20 991 29.26 820 24.21 4.7 40.5 54 -3.8 25.1
00:25 991 29.26 820 24.21 4.7 40.5 54 -3.7 25.3
00:30 991 29.26 820 24.21 4.8 40.6 55 -3.6 25.5
00:35 991 29.26 820 24.21 4.7 40.4 56 -3.3 26.1
00:40 991 29.26 820 24.21 4.5 40 57 -3.3 26
00:45 991 29.26 820 24.21 4.4 40 56 -3.5 25.8
00:50 991 29.26 820 24.21 4.4 39.9 58 -3.2 26.3
00:55 991 29.26 820 24.21 4.3 39.8 59 -3.1 26.5
01:00 991 29.26 820 24.21 4.2 39.6 59 -3 26.6
01:05 991 29.26 820 24.21 4.2 39.5 59 -3.2 26.2
01:10 991 29.26 820 24.21 4.2 39.6 60 -2.9 26.7
01:15 991 29.26 820 24.21 4 39.3 60 -3 26.6
01:20 991 29.26 820 24.21 4 39.2 59 -3.2 26.2
01:25 990 29.23 820 24.21 4.2 39.5 59 -3.2 26.3
01:30 990 29.23 819 24.19 4 39.2 61 -2.9 26.8
01:35 990 29.23 819 24.19 3.5 38.4 62 -3 26.6
01:40 990 29.23 819 24.19 3.3 37.9 64 -2.8 26.9
01:45 990 29.23 819 24.19 3.1 37.5 67 -2.5 27.4
01:50 990 29.23 819 24.19 2.8 37 69 -2.3 27.8
01:55 990 29.23 819 24.19 2.6 36.7 71 -2.2 28
02:00 990 29.23 819 24.19 2.4 36.3 73 -1.9 28.5
02:05 990 29.23 819 24.19 2.4 36.3 74 -1.8 28.8
02:10 990 29.23 819 24.19 2.4 36.4 74 -1.7 29
02:15 990 29.23 819 24.19 2.5 36.5 74 -1.6 29
02:20 990 29.23 819 24.19 2.4 36.3 75 -1.5 29.2
02:25 990 29.23 819 24.19 2.2 36 76 -1.6 29.2
02:30 990 29.23 819 24.19 2.2 36 76 -1.6 29.1
02:35 990 29.23 819 24.19 2.2 35.9 76 -1.5 29.2
02:40 989 29.21 819 24.19 2.2 35.9 77 -1.5 29.3
02:45 989 29.21 819 24.19 2.1 35.7 77 -1.5 29.2
02:50 989 29.21 818 24.16 2.1 35.8 76 -1.6 29.1
02:55 989 29.21 818 24.16 2.2 35.9 76 -1.6 29.1
03:00 989 29.21 818 24.16 2.2 35.9 76 -1.6 29.2
03:05 989 29.21 818 24.16 2.2 35.9 76 -1.6 29.2
03:10 989 29.21 818 24.16 2.2 35.9 76 -1.6 29.2
03:15 989 29.21 818 24.16 2.2 36 76 -1.6 29.2
03:20 989 29.21 818 24.16 2.2 35.9 77 -1.5 29.3
03:25 989 29.21 819 24.19 2 35.6 77 -1.5 29.2
03:30 989 29.21 819 24.19 2.2 35.9 77 -1.5 29.2
03:35 989 29.21 819 24.19 2 35.7 77 -1.5 29.3
03:40 990 29.23 819 24.19 2.2 35.9 79 -1.1 30
03:45 989 29.21 819 24.19 2.1 35.8 76 -1.7 28.9
03:50 989 29.21 818 24.16 2.6 36.7 73 -1.7 29
03:55 989 29.21 818 24.16 2.6 36.6 75 -1.5 29.4
04:00 989 29.21 818 24.16 2.3 36.1 76 -1.6 29.2
04:05 988 29.18 818 24.16 2.1 35.8 77 -1.6 29.2
04:10 988 29.18 818 24.16 2 35.5 76 -1.8 28.7
04:15 988 29.18 818 24.16 2 35.6 77 -1.7 28.9
04:20 988 29.18 818 24.16 1.8 35.3 78 -1.5 29.2
04:25 988 29.18 817 24.13 1.4 34.5 77 -2.3 27.9
04:30 988 29.18 817 24.13 1.4 34.5 78 -2 28.3
04:35 988 29.18 817 24.13 1.4 34.5 69 -3.7 25.4
04:40 988 29.18 817 24.13 2.9 37.2 53 -5.9 21.4
04:45 988 29.18 817 24.13 3.8 38.8 49 -6 21.2
04:50 988 29.18 817 24.13 4.1 39.3 49 -5.7 21.8
04:55 987 29.15 817 24.13 4.1 39.3 48 -5.8 21.5
05:00 987 29.15 817 24.13 3.9 39 48 -6.1 20.9
05:05 988 29.18 817 24.13 4 39.2 45 -6.9 19.6
05:10 988 29.18 817 24.13 4.3 39.8 46 -6.4 20.5
05:15 988 29.18 817 24.13 4.3 39.7 44 -7 19.4
05:20 988 29.18 817 24.13 4.4 40 45 -6.4 20.4
05:25 988 29.18 817 24.13 4.3 39.8 46 -6.4 20.5
05:30 988 29.18 817 24.13 4.2 39.6 44 -6.8 19.7
05:35 987 29.15 817 24.13 4.4 39.8 44 -6.7 19.9
05:40 987 29.15 817 24.13 4.2 39.6 45 -6.7 19.9
05:45 987 29.15 816 24.1 4.3 39.7 44 -7 19.4
05:50 987 29.15 816 24.1 4.5 40 45 -6.4 20.5
05:55 987 29.15 816 24.1 4.3 39.8 44 -6.7 19.9
06:00 987 29.15 816 24.1 4.4 39.9 44 -6.7 19.9
06:05 987 29.15 816 24.1 4.5 40 44 -6.9 19.6
06:10 987 29.15 816 24.1 4.6 40.3 46 -6.2 20.9
06:15 987 29.15 816 24.1 4.2 39.6 47 -6.1 21
06:20 987 29.15 816 24.1 4.1 39.3 49 -5.8 21.5
06:25 987 29.15 816 24.1 4.1 39.3 47 -6.2 20.9
06:30 987 29.15 816 24.1 4 39.3 48 -6 21.2
06:35 987 29.15 816 24.1 4.1 39.3 49 -5.8 21.6
06:40 987 29.15 816 24.1 3.9 39 51 -5.4 22.3
06:45 987 29.15 816 24.1 3.7 38.7 52 -5.2 22.6
06:50 987 29.15 816 24.1 3.5 38.3 57 -4.2 24.4
06:55 987 29.15 816 24.1 2.8 37 60 -4.2 24.5
07:00 987 29.15 816 24.1 2 35.7 64 -4 24.7
07:05 987 29.15 816 24.1 1 33.7 68 -4.3 24.3
07:10 987 29.15 816 24.1 -0.9 30.3 71 -5.5 22.1
07:15 987 29.15 816 24.1 -2.3 27.9 73 -6.5 20.3
07:20 987 29.15 816 24.1 -3.5 25.8 75 -7.3 18.8
07:25 987 29.15 817 24.13 -4.8 23.3 78 -8.1 17.4
07:30 987 29.15 817 24.13 -5.5 22.1 77 -8.9 15.9
07:35 988 29.18 817 24.13 -6.4 20.5 77 -9.7 14.5
07:40 988 29.18 817 24.13 -7.2 19.1 79 -10.2 13.7
07:45 988 29.18 817 24.13 -7.8 18.1 81 -10.5 13.2
07:50 988 29.18 817 24.13 -8 17.6 80 -10.9 12.4
07:55 988 29.18 817 24.13 -8.7 16.4 81 -11.3 11.7
08:00 988 29.18 817 24.13 -9.2 15.4 81 -11.9 10.6
08:05 989 29.21 818 24.16 -9.9 14.2 80 -12.7 9.2
08:10 989 29.21 818 24.16 -10.6 13 81 -13.2 8.2
08:15 989 29.21 818 24.16 -11.1 12.1 79 -14.1 6.6
08:20 989 29.21 818 24.16 -11.9 10.6 80 -14.7 5.6
08:25 989 29.21 818 24.16 -12.2 10 82 -14.8 5.4
08:30 989 29.21 819 24.19 -12.4 9.7 77 -15.6 3.9
08:35 989 29.21 819 24.19 -14 6.9 81 -16.5 2.3
08:40 990 29.23 819 24.19 -14.5 5.9 81 -17 1.4
08:45 990 29.23 819 24.19 -14.8 5.3 81 -17.4 0.7
08:50 991 29.26 820 24.21 -15.1 4.8 80 -17.8 -0.1
08:55 991 29.26 820 24.21 -15.2 4.6 80 -18 -0.4
09:00 991 29.26 820 24.21 -15.1 4.8 79 -18 -0.4
09:05 992 29.29 821 24.24 -15.2 4.7 77 -18.3 -1
09:10 992 29.29 821 24.24 -15.7 3.8 78 -18.7 -1.7
09:15 992 29.29 822 24.27 -15.9 3.3 79 -18.7 -1.7
09:20 993 29.32 822 24.27 -16.2 2.9 77 -19.3 -2.8
09:25 994 29.35 823 24.3 -16.8 1.8 78 -19.7 -3.5
09:30 994 29.35 823 24.3 -17.3 0.8 81 -19.8 -3.7
09:35 994 29.35 823 24.3 -17.8 0 80 -20.4 -4.7
09:40 994 29.35 823 24.3 -18.1 -0.6 81 -20.6 -5.1
09:45 994 29.35 824 24.33 -18.4 -1.2 81 -20.9 -5.6
09:50 994 29.35 824 24.33 -18.4 -1.1 81 -20.9 -5.7
09:55 994 29.35 823 24.3 -18.4 -1 83 -20.6 -5
10:00 994 29.35 823 24.3 -18.3 -0.9 83 -20.4 -4.8
10:05 994 29.35 824 24.33 -18 -0.4 85 -20 -4
10:10 995 29.38 824 24.33 -17.6 0.3 85 -19.6 -3.3
10:15 995 29.38 824 24.33 -17.5 0.5 84 -19.6 -3.2
10:20 995 29.38 825 24.36 -17.5 0.4 83 -19.8 -3.6
10:25 996 29.41 825 24.36 -17.8 -0.1 84 -19.9 -3.8
10:30 996 29.41 825 24.36 -17.8 -0 84 -19.8 -3.7
10:35 996 29.41 825 24.36 -17.7 0.1 83 -19.9 -3.9
10:40 995 29.38 825 24.36 -17.8 -0.1 84 -19.9 -3.9
10:45 996 29.41 825 24.36 -17.8 -0.1 82 -20.2 -4.3
10:50 996 29.41 825 24.36 -18 -0.3 83 -20.2 -4.4
10:55 996 29.41 825 24.36 -17.8 -0 82 -20.2 -4.3
11:00 996 29.41 826 24.39 -18.1 -0.5 79 -20.8 -5.5
11:05 997 29.44 826 24.39 -18.9 -2 79 -21.6 -6.9
11:10 997 29.44 826 24.39 -19.5 -3.1 80 -22 -7.7
11:15 998 29.47 827 24.42 -19.6 -3.3 81 -22.2 -7.9
11:20 998 29.47 827 24.42 -19.8 -3.6 82 -22 -7.7
11:25 998 29.47 827 24.42 -19.6 -3.2 83 -21.8 -7.3
11:30 998 29.47 827 24.42 -19.3 -2.7 80 -21.9 -7.4
11:35 998 29.47 827 24.42 -19.6 -3.4 80 -22.3 -8.2
11:40 998 29.47 827 24.42 -19.6 -3.2 82 -21.8 -7.3
11:45 998 29.47 827 24.42 -19.3 -2.7 81 -21.8 -7.3
11:50 998 29.47 827 24.42 -19.3 -2.8 81 -21.9 -7.4
11:55 998 29.47 828 24.45 -19.3 -2.8 80 -22 -7.5
12:00 998 29.47 828 24.45 -19.5 -3.2 79 -22.4 -8.3
12:05 999 29.5 828 24.45 -19.8 -3.7 76 -23 -9.4
12:10 999 29.5 828 24.45 -20.3 -4.5 79 -23 -9.4
12:15 999 29.5 828 24.45 -20.2 -4.3 80 -22.8 -9
12:20 999 29.5 828 24.45 -19.9 -3.7 78 -22.8 -9
12:25 999 29.5 828 24.45 -20 -3.9 79 -22.8 -9
12:30 999 29.5 828 24.45 -19.8 -3.6 79 -22.5 -8.6
12:35 999 29.5 828 24.45 -20.1 -4.2 80 -22.8 -9.1
12:40 999 29.5 828 24.45 -20.1 -4.2 80 -22.6 -8.8
12:45 999 29.5 828 24.45 -19.8 -3.6 80 -22.5 -8.4
12:50 999 29.5 828 24.45 -19.6 -3.4 79 -22.3 -8.2
12:55 999 29.5 828 24.45 -19.7 -3.4 77 -22.8 -9
13:00 999 29.5 828 24.45 -20 -4 79 -22.7 -8.8
13:05 1000 29.53 829 24.48 -20 -4 79 -22.8 -9.1
13:10 1000 29.53 829 24.48 -20 -3.9 79 -22.7 -8.8
13:15 1000 29.53 829 24.48 -19.9 -3.8 79 -22.6 -8.7
13:20 1000 29.53 830 24.51 -20.2 -4.4 78 -23.1 -9.5
13:25 1000 29.53 829 24.48 -20.2 -4.4 81 -22.7 -8.8
13:30 1000 29.53 829 24.48 -20.2 -4.3 81 -22.6 -8.6
13:35 1000 29.53 829 24.48 -20.1 -4.2 80 -22.7 -8.9
13:40 1000 29.53 830 24.51 -20 -4 80 -22.6 -8.6
13:45 1000 29.53 830 24.51 -20.1 -4.2 80 -22.8 -9
13:50 1000 29.53 829 24.48 -20.6 -5 78 -23.5 -10.2
13:55 1000 29.53 829 24.48 -21 -5.9 79 -23.7 -10.7
14:00 1000 29.53 829 24.48 -21.1 -5.9 80 -23.6 -10.6
14:05 1000 29.53 829 24.48 -20.8 -5.4 78 -23.7 -10.6
14:10 1000 29.53 829 24.48 -20.5 -4.9 81 -23 -9.4
14:15 1000 29.53 829 24.48 -20.2 -4.4 80 -22.9 -9.2
14:20 1000 29.53 829 24.48 -20.4 -4.6 80 -23 -9.4
14:25 1000 29.53 830 24.51 -19.9 -3.7 80 -22.5 -8.4
14:30 1001 29.56 830 24.51 -19.4 -2.8 78 -22.3 -8.1
14:35 1001 29.56 830 24.51 -19.3 -2.7 79 -22 -7.5
14:40 1001 29.56 830 24.51 -19 -2.2 80 -21.7 -7
14:45 1001 29.56 830 24.51 -18.8 -1.8 78 -21.7 -7
14:50 1001 29.56 830 24.51 -18.7 -1.7 79 -21.5 -6.7
14:55 1001 29.56 830 24.51 -19.2 -2.6 79 -22 -7.7
15:00 1001 29.56 830 24.51 -19.3 -2.7 78 -22.2 -7.9
15:05 1001 29.56 830 24.51 -19.2 -2.5 78 -22.1 -7.8
15:10 1001 29.56 830 24.51 -19.1 -2.4 77 -22.2 -7.9
15:15 1001 29.56 830 24.51 -19.2 -2.5 77 -22.2 -7.9
15:20 1001 29.56 831 24.54 -19.4 -2.9 78 -22.3 -8.2
15:25 1002 29.59 831 24.54 -19.5 -3.1 79 -22.3 -8.1
15:30 1002 29.59 831 24.54 -19.5 -3.1 78 -22.4 -8.4
15:35 1002 29.59 831 24.54 -19.6 -3.3 77 -22.6 -8.7
15:40 1002 29.59 831 24.54 -19.8 -3.6 79 -22.6 -8.7
15:45 1002 29.59 831 24.54 -19.7 -3.4 78 -22.6 -8.6
15:50 1002 29.59 831 24.54 -19.8 -3.6 76 -23 -9.4
15:55 1002 29.59 831 24.54 -20.2 -4.3 80 -22.9 -9.1
16:00 1002 29.59 831 24.54 -20.4 -4.7 80 -23 -9.4
16:05 1002 29.59 831 24.54 -20.2 -4.3 78 -23 -9.4
16:10 1002 29.59 831 24.54 -19.9 -3.9 79 -22.7 -8.9
16:15 1002 29.59 831 24.54 -19.8 -3.6 77 -22.8 -9.1
16:20 1002 29.59 831 24.54 -19.9 -3.7 79 -22.6 -8.7
16:25 1002 29.59 831 24.54 -19.7 -3.4 79 -22.5 -8.5
16:30 1002 29.59 832 24.57 -19.6 -3.3 79 -22.4 -8.3
16:35 1003 29.62 832 24.57 -19.7 -3.5 79 -22.5 -8.6
16:40 1003 29.62 832 24.57 -19.9 -3.8 79 -22.6 -8.7
16:45 1003 29.62 832 24.57 -20.1 -4.1 79 -22.8 -9.1
16:50 1003 29.62 832 24.57 -20.2 -4.4 79 -22.9 -9.3
16:55 1003 29.62 832 24.57 -20.4 -4.8 80 -23.1 -9.5
17:00 1003 29.62 832 24.57 -20.5 -4.8 80 -23.1 -9.6
17:05 1003 29.62 832 24.57 -20.5 -4.9 81 -23 -9.4
17:10 1003 29.62 832 24.57 -20.6 -5.1 79 -23.4 -10
17:15 1003 29.62 832 24.57 -20.9 -5.7 81 -23.4 -10.2
17:20 1003 29.62 832 24.57 -20.9 -5.7 80 -23.5 -10.3
17:25 1003 29.62 832 24.57 -21.1 -5.9 81 -23.5 -10.2
17:30 1003 29.62 832 24.57 -21.1 -6 81 -23.5 -10.4
17:35 1003 29.62 832 24.57 -21.1 -6 82 -23.5 -10.2
17:40 1003 29.62 832 24.57 -21 -5.8 81 -23.5 -10.4
17:45 1003 29.62 832 24.57 -21.1 -5.9 81 -23.6 -10.4
17:50 1003 29.62 832 24.57 -21.2 -6.1 81 -23.6 -10.5
17:55 1003 29.62 832 24.57 -21.1 -6 80 -23.7 -10.7
18:00 1003 29.62 832 24.57 -21.2 -6.2 80 -23.9 -10.9
18:05 1003 29.62 832 24.57 -21.5 -6.7 81 -23.9 -11.1
18:10 1003 29.62 832 24.57 -21.6 -6.8 82 -23.9 -11
18:15 1003 29.62 832 24.57 -21.5 -6.6 82 -23.8 -10.9
18:20 1003 29.62 833 24.6 -21.2 -6.2 81 -23.7 -10.6
18:25 1003 29.62 832 24.57 -20.9 -5.7 82 -23.3 -9.9
18:30 1003 29.62 832 24.57 -20.8 -5.5 81 -23.3 -10
18:35 1003 29.62 833 24.6 -21 -5.9 83 -23.2 -9.8
18:40 1004 29.65 833 24.6 -20.9 -5.6 81 -23.3 -10
18:45 1004 29.65 833 24.6 -20.9 -5.6 81 -23.4 -10.1
18:50 1004 29.65 833 24.6 -21.1 -6 80 -23.6 -10.5
18:55 1004 29.65 833 24.6 -21.3 -6.4 80 -24 -11.2
19:00 1004 29.65 833 24.6 -21.7 -7 81 -24 -11.3
19:05 1004 29.65 833 24.6 -21.9 -7.5 81 -24.4 -11.9
19:10 1004 29.65 833 24.6 -22.2 -7.9 81 -24.6 -12.3
19:15 1004 29.65 833 24.6 -22.2 -8 81 -24.6 -12.3
19:20 1004 29.65 833 24.6 -22.2 -7.9 81 -24.6 -12.2
19:25 1004 29.65 833 24.6 -22.2 -8 81 -24.7 -12.4
19:30 1004 29.65 833 24.6 -22.3 -8.1 82 -24.6 -12.2
19:35 1004 29.65 833 24.6 -22.3 -8.2 82 -24.6 -12.3
19:40 1004 29.65 833 24.6 -22.6 -8.6 82 -24.8 -12.7
19:45 1004 29.65 833 24.6 -22.8 -9 81 -25.3 -13.5
19:50 1004 29.65 833 24.6 -23.2 -9.7 82 -25.4 -13.8
19:55 1004 29.65 833 24.6 -23.4 -10.1 81 -25.8 -14.4
20:00 1004 29.65 833 24.6 -23.4 -10.2 82 -25.8 -14.4
20:05 1004 29.65 833 24.6 -23.4 -10.1 81 -25.8 -14.5
20:10 1004 29.65 833 24.6 -23.4 -10.1 81 -25.8 -14.5
20:15 1004 29.65 833 24.6 -23.4 -10.2 81 -25.8 -14.5
20:20 1004 29.65 833 24.6 -23.3 -10 81 -25.7 -14.2
20:25 1004 29.65 833 24.6 -23.2 -9.7 81 -25.5 -14
20:30 1004 29.65 833 24.6 -23.1 -9.5 82 -25.3 -13.6
20:35 1004 29.65 833 24.6 -23 -9.4 81 -25.3 -13.6
20:40 1004 29.65 833 24.6 -23 -9.3 81 -25.4 -13.6
20:45 1004 29.65 833 24.6 -23.2 -9.7 82 -25.5 -13.9
20:50 1004 29.65 833 24.6 -23 -9.5 82 -25.3 -13.5
20:55 1004 29.65 833 24.6 -22.7 -8.9 82 -25.1 -13.1
21:00 1004 29.65 833 24.6 -22.5 -8.5 82 -24.8 -12.7
21:05 1004 29.65 833 24.6 -22.3 -8.2 81 -24.8 -12.6
21:10 1004 29.65 833 24.6 -22.5 -8.5 81 -24.9 -12.8
21:15 1004 29.65 834 24.63 -22.7 -8.8 82 -25 -13
21:20 1004 29.65 834 24.63 -22.8 -9 80 -25.3 -13.5
21:25 1004 29.65 834 24.63 -22.9 -9.2 79 -25.7 -14.2
21:30 1004 29.65 834 24.63 -23.6 -10.5 78 -26.4 -15.5
21:35 1004 29.65 834 24.63 -24.1 -11.4 81 -26.6 -15.8
21:40 1004 29.65 834 24.63 -24.3 -11.7 81 -26.7 -16
21:45 1004 29.65 833 24.6 -24.5 -12.1 81 -26.8 -16.3
21:50 1004 29.65 834 24.63 -24.2 -11.6 82 -26.4 -15.6
21:55 1004 29.65 834 24.63 -23.7 -10.7 80 -26.3 -15.3
22:00 1004 29.65 834 24.63 -23.7 -10.6 82 -25.9 -14.6
22:05 1004 29.65 834 24.63 -23.2 -9.8 82 -25.5 -14
22:10 1005 29.68 834 24.63 -23.1 -9.6 81 -25.5 -13.9
22:15 1005 29.68 834 24.63 -23.1 -9.5 80 -25.6 -14.1
22:20 1005 29.68 834 24.63 -23.3 -9.9 79 -26 -14.8
22:25 1005 29.68 834 24.63 -23.6 -10.5 79 -26.3 -15.4
22:30 1005 29.68 834 24.63 -23.9 -10.9 81 -26.3 -15.3
22:35 1005 29.68 834 24.63 -23.8 -10.9 79 -26.6 -15.8
22:40 1005 29.68 834 24.63 -24.1 -11.3 80 -26.6 -15.9
22:45 1005 29.68 834 24.63 -23.9 -11.1 81 -26.4 -15.5
22:50 1005 29.68 834 24.63 -23.6 -10.5 82 -25.9 -14.7
22:55 1005 29.68 834 24.63 -23.3 -9.9 81 -25.6 -14.1
23:00 1005 29.68 834 24.63 -23 -9.4 80 -25.5 -13.9
23:05 1005 29.68 834 24.63 -23 -9.4 81 -25.5 -13.8
23:10 1005 29.68 834 24.63 -23.1 -9.5 79 -25.7 -14.3
23:15 1005 29.68 834 24.63 -23.3 -9.9 80 -25.9 -14.6
23:20 1005 29.68 834 24.63 -23.4 -10.2 79 -26.2 -15.1
23:25 1005 29.68 834 24.63 -23.9 -10.9 79 -26.6 -15.9
23:30 1005 29.68 834 24.63 -24.1 -11.4 80 -26.6 -16
23:35 1005 29.68 834 24.63 -24 -11.2 80 -26.6 -15.8
23:40 1005 29.68 835 24.66 -23.9 -11.1 80 -26.5 -15.7
23:45 1005 29.68 834 24.63 -23.9 -11.1 80 -26.5 -15.8
23:50 1005 29.68 834 24.63 -23.9 -11.1 81 -26.4 -15.5
23:55 1005 29.68 834 24.63 -23.7 -10.7 80 -26.3 -15.3
24:00 1005 29.68 834 24.63 -23.7 -10.7 82 -26 -14.8